Aviation Digital Data Service (ADDS)

Output produced by TAFs form (0812 UTC 30 August 2014)
found at http://www.aviationweather.gov/adds/tafs/
 
KMRB 300532Z 3006/3106 VRB03KT P6SM BKN050 
     FM301100 15004KT P6SM SCT050 
     FM301300 16006KT P6SM BKN050 
     FM301900 16010KT P6SM BKN250 
     FM310100 16006KT P6SM BKN250 
     FM310300 16006KT 5SM BR BKN250